If you wish to contribute or participate in the discussions about articles you are invited to join SKYbrary as a registered user

 Actions

Puerto Lempira Airport

From SKYbrary Wiki

MHPL
Airport
ICAO: MHPL – IATA: PEU
Summary
Name Puerto Lempira Airport
Region South America and Caribbean
Territory Honduras HN.gif
Location Puerto Lempira, Gracias a Dios Department
Serving Puerto Lempira
Elevation 10.058 m
33 ft10.058 m
Coordinates 15° 15' 41.50" N, 83° 46' 28.65" W
Runways
Designator Length Width Surface ROPS


METAR
Observation MHPL 182000Z 02008KT 9999 SCT030CB 32/26 Q1009 CB E TCU ALL HZ
Station Puerto Lempira
Date/Time 18 October 2019 20:00:00
Wind direction 20°
Wind speed 08 kts
Lowest cloud amount scattered clouds
Temperature 32°C
Dew point 26°C
Humidity 70%
QNH 1009 hPa
Weather condition n/a

Puerto Lempira Airport is an airport serving Puerto Lempira in Gracias a Dios Department, Honduras.

Climatology

Tropical monsoon climate (Köppen climate classification Am)

Maps

Terrain

Loading map...

Airport Layout

Loading map...


Accidents & Serious Incidents at or in vicinity of MHPL

None on SKYbrary